Terminal Aerodrome Forecast
Issued by NWS Sterling, VA

Current Version | Previous Version | Text Only | Print | Product List | Glossary Off
Versions: 1 2 3 4 5 6 7 8 9 10 11 12 13 14 15 16 17 18 19 20 21 22 23

000
FTUS41 KLWX 291800 AAA
TAFIAD
TAF AMD
KIAD 291816Z 2918/3024 16010G14KT P6SM SCT050 OVC090
     FM292100 16012KT 3SM -FZRASNPL BKN025 OVC050
     FM300000 17008KT P6SM SCT025 BKN050
     FM300600 23007KT P6SM BKN050
     FM301200 31011KT P6SM BKN050
     FM301400 31014G35KT P6SM BKN050
     FM302200 31022G36KT P6SM SCT035=

USA.gov is the U.S. government's official web portal to all federal, state and local government web resources and services.